Time;durP1;ratioP1;P1;durP2;ratioP2;P2;SDS_P1;SDS_P2;PMS_P1;PMS_P2;Temp;Humidity;BMP_temperature;BMP_pressure;BME280_temperature;BME280_humidity;BME280_pressure;Samples;Min_cycle;Max_cycle;Signal;HPM_P1;HPM_P2
2023/07/30 00:01:09;;;;;;;35.60;2.07;;;;;;;25.39;54.84;98809.97;7312571;19;129121;-37
2023/07/30 00:03:35;;;;;;;41.70;2.23;;;;;;;25.40;54.54;98806.34;7310910;19;129493;-35
2023/07/30 00:06:00;;;;;;;26.00;1.47;;;;;;;25.41;54.49;98805.34;7312592;19;130130;-35
2023/07/30 00:08:25;;;;;;;32.10;1.80;;;;;;;25.42;54.87;98796.47;7310771;19;128947;-29
2023/07/30 00:10:51;;;;;;;31.10;1.70;;;;;;;25.42;54.55;98799.88;7310321;19;130390;-32
2023/07/30 00:13:17;;;;;;;39.63;2.20;;;;;;;25.43;54.49;98795.44;7309827;19;129147;-33
2023/07/30 00:15:42;;;;;;;36.27;2.07;;;;;;;25.42;54.99;98794.63;7312422;19;129288;-33
2023/07/30 00:18:08;;;;;;;25.60;1.40;;;;;;;25.42;54.53;98794.63;7311485;19;129282;-34
2023/07/30 00:20:36;;;;;;;29.43;1.60;;;;;;;25.43;54.86;98791.00;7311778;19;129492;-32
2023/07/30 00:23:01;;;;;;;61.67;3.35;;;;;;;25.34;53.24;98801.75;7310027;19;130693;-36
2023/07/30 00:25:27;;;;;;;21.77;1.23;;;;;;;24.85;51.41;98784.91;7311325;19;129328;-29
2023/07/30 00:27:52;;;;;;;27.63;1.57;;;;;;;24.87;50.97;98793.44;7317783;19;129055;-31
2023/07/30 00:30:17;;;;;;;46.60;2.50;;;;;;;24.90;50.90;98793.06;7317799;19;128944;-38
2023/07/30 00:32:43;;;;;;;26.33;1.53;;;;;;;25.13;54.43;98793.78;7318472;19;129155;-33
2023/07/30 00:35:09;;;;;;;31.40;1.70;;;;;;;25.28;53.84;98792.81;7316416;19;129581;-31
2023/07/30 00:37:35;;;;;;;24.77;1.48;;;;;;;25.35;54.70;98792.91;7316455;19;129492;-37
2023/07/30 00:40:04;;;;;;;24.27;1.30;;;;;;;25.36;54.45;98791.91;7318423;19;129585;-35
2023/07/30 00:42:29;;;;;;;35.13;1.90;;;;;;;25.40;54.53;98790.56;7317957;19;130367;-33
2023/07/30 00:44:55;;;;;;;28.13;1.60;;;;;;;25.42;54.87;98788.56;7315499;19;129088;-34
2023/07/30 00:47:22;;;;;;;23.47;1.40;;;;;;;25.40;54.83;98796.63;7317289;19;128901;-37
2023/07/30 00:49:47;;;;;;;;;;;;;;;25.42;54.58;98778.81;7318783;19;129154;-31
2023/07/30 00:52:15;;;;;;;32.03;1.83;;;;;;;25.43;55.17;98793.63;7316896;19;129346;-33
2023/07/30 00:54:41;;;;;;;17.33;0.98;;;;;;;25.43;54.80;98790.19;7315622;19;130817;-36
2023/07/30 00:57:07;;;;;;;52.17;3.33;;;;;;;25.41;54.98;98776.38;7317165;19;129176;-34
2023/07/30 00:59:33;;;;;;;33.53;1.87;;;;;;;25.35;54.89;98770.03;7317286;19;128768;-36
2023/07/30 01:01:59;;;;;;;33.50;1.97;;;;;;;25.43;54.98;98779.66;7316485;19;130283;-34
2023/07/30 01:04:24;;;;;;;22.07;1.27;;;;;;;25.17;51.86;98781.94;7315264;19;130242;-35
2023/07/30 01:06:50;;;;;;;30.70;1.90;;;;;;;24.80;51.26;98761.78;7316284;19;129325;-37
2023/07/30 01:09:15;;;;;;;34.67;1.87;;;;;;;24.82;50.97;98769.47;7316655;19;129531;-32
2023/07/30 01:11:41;;;;;;;37.20;2.00;;;;;;;24.80;50.34;98766.22;7317381;19;131062;-37
2023/07/30 01:14:09;;;;;;;6.43;0.53;;;;;;;25.00;54.16;98762.06;7315424;19;129639;-39
2023/07/30 01:16:34;;;;;;;22.77;1.45;;;;;;;25.23;54.20;98773.28;7316085;19;129112;-34
2023/07/30 01:19:03;;;;;;;44.23;2.40;;;;;;;25.34;54.39;98785.97;7316372;19;128892;-34
2023/07/30 01:21:30;;;;;;;31.30;1.80;;;;;;;25.37;54.55;98783.81;7317825;19;130572;-35
2023/07/30 01:23:55;;;;;;;;;;;;;;;25.51;54.42;98782.19;7316821;19;129248;-30
2023/07/30 01:26:27;;;;;;;28.60;1.70;;;;;;;25.42;55.24;98789.34;7317397;19;129540;-30
2023/07/30 01:28:56;;;;;;;37.20;2.13;;;;;;;25.42;54.91;98793.81;7316364;19;129546;-34
2023/07/30 01:31:26;;;;;;;39.25;2.10;;;;;;;25.41;55.16;98792.19;7315461;19;129222;-35
2023/07/30 01:33:54;;;;;;;8.95;0.70;;;;;;;25.40;54.92;98796.63;7314873;19;130295;-36
2023/07/30 01:36:20;;;;;;;26.92;1.52;;;;;;;25.40;55.25;98796.63;7315686;19;129456;-30
2023/07/30 01:38:47;;;;;;;23.30;1.35;;;;;;;25.38;54.83;98797.81;7315712;19;129855;-36
2023/07/30 01:41:13;;;;;;;61.58;3.22;;;;;;;25.41;55.26;98805.34;7317050;19;128991;-36
2023/07/30 01:43:38;;;;;;;30.27;1.70;;;;;;;25.42;54.84;98804.34;7316031;19;129682;-36
2023/07/30 01:46:03;;;;;;;35.83;2.07;;;;;;;24.93;51.58;98805.84;7316784;19;129120;-35
2023/07/30 01:48:29;;;;;;;15.97;1.00;;;;;;;24.83;51.16;98805.28;7315022;19;130597;-31
2023/07/30 01:50:54;;;;;;;47.10;2.63;;;;;;;24.79;51.17;98812.72;7315688;19;129226;-32
2023/07/30 01:53:20;;;;;;;27.10;1.43;;;;;;;25.04;53.87;98818.56;7316146;19;129236;-35
2023/07/30 01:55:46;;;;;;;28.23;1.53;;;;;;;25.16;54.50;98809.22;7316859;19;129700;-30
2023/07/30 01:58:13;;;;;;;17.95;1.05;;;;;;;25.32;54.77;98830.09;7315836;19;129014;-35
2023/07/30 02:00:38;;;;;;;36.60;1.92;;;;;;;25.36;54.80;98823.47;7316421;19;131205;-38
2023/07/30 02:03:04;;;;;;;26.90;1.43;;;;;;;25.39;54.22;98831.00;7313535;19;129689;-30
2023/07/30 02:05:29;;;;;;;28.30;1.67;;;;;;;25.41;54.55;98829.00;7314304;19;129778;-33
2023/07/30 02:07:54;;;;;;;37.63;2.13;;;;;;;25.40;54.73;98828.19;7314692;19;128915;-39
2023/07/30 02:10:20;;;;;;;15.10;0.90;;;;;;;25.43;54.39;98829.66;7316963;19;129473;-35
2023/07/30 02:12:45;;;;;;;36.33;2.07;;;;;;;25.43;55.20;98819.13;7315581;19;129782;-32
2023/07/30 02:15:10;;;;;;;26.23;1.50;;;;;;;25.44;54.81;98810.22;7314048;19;129274;-31
2023/07/30 02:17:36;;;;;;;36.70;2.07;;;;;;;25.42;55.19;98813.03;7313688;19;129029;-33
2023/07/30 02:20:01;;;;;;;29.90;1.70;;;;;;;25.32;55.38;98796.69;7316232;19;129029;-33
2023/07/30 02:22:26;;;;;;;22.57;1.33;;;;;;;25.43;54.72;98816.50;7315876;19;129610;-35
2023/07/30 02:24:52;;;;;;;22.00;1.30;;;;;;;25.00;51.42;98814.66;7313068;19;128947;-35
2023/07/30 02:27:17;;;;;;;39.87;2.30;;;;;;;24.86;50.77;98818.91;7315562;19;130128;-31
2023/07/30 02:29:42;;;;;;;26.70;1.50;;;;;;;24.81;50.77;98817.81;7316104;19;130090;-33
2023/07/30 02:32:09;;;;;;;28.70;1.60;;;;;;;24.92;53.78;98817.38;7314664;19;129924;-37
2023/07/30 02:34:34;;;;;;;27.73;1.50;;;;;;;25.17;54.16;98813.50;7312436;19;129096;-31
2023/07/30 02:36:59;;;;;;;31.33;1.90;;;;;;;25.27;54.33;98816.66;7314255;19;128747;-37
2023/07/30 02:39:24;;;;;;;26.40;1.50;;;;;;;25.35;54.09;98827.13;7314402;19;131369;-33
2023/07/30 02:41:50;;;;;;;40.57;2.37;;;;;;;25.38;54.31;98818.88;7312636;19;129288;-33
2023/07/30 02:44:46;;;;;;;26.93;1.57;;;;;;;25.44;54.71;98818.13;7312081;19;129337;-30
2023/07/30 02:47:11;;;;;;;54.35;3.38;;;;;;;25.30;54.56;98805.78;7314198;19;128772;-35
2023/07/30 02:49:37;;;;;;;43.07;2.40;;;;;;;25.43;54.40;98827.03;7313040;19;129026;-34
2023/07/30 02:52:02;;;;;;;46.77;2.47;;;;;;;25.43;54.76;98832.28;7314845;19;129195;-32
2023/07/30 02:54:27;;;;;;;67.33;4.13;;;;;;;25.42;54.77;98825.41;7311200;19;129743;-38
2023/07/30 02:56:53;;;;;;;12.50;0.93;;;;;;;25.43;54.74;98827.03;7313190;19;129009;-34
2023/07/30 02:59:18;;;;;;;45.13;2.40;;;;;;;25.42;54.96;98825.41;7312339;19;130330;-37
2023/07/30 03:01:44;;;;;;;24.00;1.30;;;;;;;25.42;55.21;98830.66;7315128;19;129239;-32
2023/07/30 03:04:09;;;;;;;27.87;1.57;;;;;;;25.38;53.05;98832.03;7312744;19;129049;-34
2023/07/30 03:06:35;;;;;;;30.33;1.63;;;;;;;24.97;52.08;98839.50;7313861;19;129196;-37
2023/07/30 03:09:00;;;;;;;35.03;2.07;;;;;;;24.87;50.91;98840.75;7312207;19;130878;-35
2023/07/30 03:11:25;;;;;;;25.47;1.37;;;;;;;24.83;51.15;98835.03;7314363;19;129654;-33
2023/07/30 03:13:51;;;;;;;33.23;1.83;;;;;;;25.07;53.80;98831.34;7310531;19;129034;-36
2023/07/30 03:16:16;;;;;;;37.77;2.03;;;;;;;25.24;53.87;98830.16;7314394;19;129623;-33
2023/07/30 03:18:41;;;;;;;31.00;1.70;;;;;;;25.21;53.99;98818.19;7312709;19;128990;-34
2023/07/30 03:21:06;;;;;;;25.60;1.40;;;;;;;25.36;54.61;98823.47;7313782;19;129855;-33
2023/07/30 03:23:32;;;;;;;24.33;1.53;;;;;;;25.30;54.52;98818.94;7312451;19;129559;-35
2023/07/30 03:25:59;;;;;;;41.97;2.33;;;;;;;25.41;54.81;98823.75;7311109;19;129319;-30
2023/07/30 03:28:25;;;;;;;32.90;1.92;;;;;;;25.32;54.58;98798.53;7312257;19;130269;-34
2023/07/30 03:30:50;;;;;;;24.53;1.37;;;;;;;25.43;55.04;98816.50;7314341;19;129775;-36
2023/07/30 03:33:16;;;;;;;23.97;1.37;;;;;;;25.42;55.22;98809.63;7312414;19;128737;-31
2023/07/30 03:35:41;;;;;;;49.57;2.63;;;;;;;25.42;54.58;98815.66;7313411;19;129269;-37
2023/07/30 03:38:06;;;;;;;26.83;1.50;;;;;;;25.42;54.65;98810.41;7313870;19;130214;-32
2023/07/30 03:40:32;;;;;;;29.30;1.57;;;;;;;25.43;54.95;98805.97;7312767;19;130356;-33
2023/07/30 03:42:57;;;;;;;34.80;1.87;;;;;;;25.40;55.37;98811.59;7312760;19;129143;-34
2023/07/30 03:45:22;;;;;;;48.60;2.53;;;;;;;25.27;52.27;98822.72;7311033;19;129088;-39
2023/07/30 03:47:48;;;;;;;37.70;2.00;;;;;;;24.89;51.55;98831.69;7312545;19;132421;-33
2023/07/30 03:50:13;;;;;;;25.07;1.47;;;;;;;24.73;51.65;98823.13;7312682;19;129585;-38
2023/07/30 03:52:38;;;;;;;39.60;2.30;;;;;;;24.81;51.18;98836.22;7312471;19;128709;-31
2023/07/30 03:55:04;;;;;;;38.07;1.97;;;;;;;25.10;54.50;98834.44;7309679;19;129658;-34
2023/07/30 03:57:29;;;;;;;28.97;1.70;;;;;;;25.22;54.26;98832.97;7311907;19;128979;-37
2023/07/30 03:59:55;;;;;;;33.13;2.23;;;;;;;25.31;54.62;98845.06;7311138;19;129269;-31
2023/07/30 04:02:20;;;;;;;41.13;2.33;;;;;;;25.36;54.49;98839.28;7319236;19;128828;-34
2023/07/30 04:04:48;;;;;;;32.53;1.93;;;;;;;25.38;54.54;98842.53;7317401;19;129225;-41
2023/07/30 04:07:13;;;;;;;52.75;3.17;;;;;;;25.34;54.71;98834.16;7319452;19;130395;-32
2023/07/30 04:09:38;;;;;;;54.60;3.30;;;;;;;25.41;55.02;98844.81;7318252;19;129284;-33
2023/07/30 04:12:04;;;;;;;30.60;1.77;;;;;;;25.41;54.44;98835.09;7318855;19;129150;-36
2023/07/30 04:14:30;;;;;;;27.83;1.63;;;;;;;25.42;54.92;98846.47;7318660;19;129537;-32
2023/07/30 04:16:55;;;;;;;30.03;1.70;;;;;;;25.42;54.79;98843.81;7319141;19;130759;-30
2023/07/30 04:19:20;;;;;;;26.97;1.50;;;;;;;25.42;55.08;98844.63;7317740;19;129115;-35
2023/07/30 04:21:46;;;;;;;45.23;2.40;;;;;;;25.41;55.01;98844.81;7319236;19;129310;-37
2023/07/30 04:24:11;;;;;;;23.90;1.30;;;;;;;25.39;55.42;98825.75;7316780;19;131438;-34
2023/07/30 04:26:37;;;;;;;37.43;2.07;;;;;;;25.04;51.15;98827.25;7317476;19;130837;-34
2023/07/30 04:29:02;;;;;;;24.00;1.33;;;;;;;24.82;51.00;98828.16;7318389;19;129778;-30
2023/07/30 04:31:27;;;;;;;42.97;2.40;;;;;;;24.76;50.65;98826.22;7318764;19;129523;-35
2023/07/30 04:33:53;;;;;;;23.80;1.37;;;;;;;24.81;51.96;98831.75;7317734;19;129543;-32
2023/07/30 04:36:18;;;;;;;28.97;1.67;;;;;;;25.12;54.49;98827.16;7317621;19;130532;-33
2023/07/30 04:38:43;;;;;;;32.43;1.80;;;;;;;25.26;54.00;98820.28;7316535;19;130200;-36
2023/07/30 04:41:09;;;;;;;39.43;2.23;;;;;;;25.35;54.23;98829.75;7318352;19;128718;-40
2023/07/30 04:43:34;;;;;;;47.97;2.50;;;;;;;25.40;54.44;98832.66;7318062;19;128808;-33
2023/07/30 04:45:59;;;;;;;31.70;1.70;;;;;;;25.30;54.56;98813.66;7316698;19;130711;-36
2023/07/30 04:48:25;;;;;;;55.03;2.87;;;;;;;25.41;55.01;98829.00;7316458;19;129154;-41
2023/07/30 04:50:50;;;;;;;26.80;1.53;;;;;;;25.41;54.41;98829.00;7318873;19;128963;-36
2023/07/30 04:53:18;;;;;;;29.07;1.63;;;;;;;25.41;54.69;98829.00;7316959;19;129392;-36
2023/07/30 04:55:43;;;;;;;24.45;1.38;;;;;;;25.40;55.22;98830.03;7318628;19;131284;-37
2023/07/30 04:58:08;;;;;;;40.07;2.27;;;;;;;25.42;54.80;98825.41;7317696;19;130323;-32
2023/07/30 05:00:34;;;;;;;27.17;1.50;;;;;;;25.41;54.94;98829.00;7319119;19;128845;-36
2023/07/30 05:02:59;;;;;;;27.70;1.57;;;;;;;25.40;54.94;98832.66;7316921;19;129194;-40
2023/07/30 05:05:24;;;;;;;9.53;0.70;;;;;;;25.24;52.73;98817.00;7315338;19;129091;-35
2023/07/30 05:07:50;;;;;;;48.90;2.63;;;;;;;24.96;51.23;98823.88;7316790;19;130254;-37
2023/07/30 05:10:16;;;;;;;25.53;1.37;;;;;;;24.91;50.56;98829.69;7318935;19;129756;-36
2023/07/30 05:12:41;;;;;;;24.40;1.37;;;;;;;24.86;50.81;98831.25;7315543;19;129997;-32
2023/07/30 05:15:07;;;;;;;21.47;1.30;;;;;;;25.12;54.29;98824.53;7313499;19;129491;-34
2023/07/30 05:17:32;;;;;;;46.47;2.40;;;;;;;25.15;54.28;98812.84;7316073;19;130766;-36
2023/07/30 05:19:58;;;;;;;24.33;1.43;;;;;;;25.32;54.70;98832.72;7316210;19;128752;-36
2023/07/30 05:22:25;;;;;;;34.07;1.90;;;;;;;25.38;54.72;98839.91;7316258;19;128945;-34
2023/07/30 05:24:50;;;;;;;33.72;1.85;;;;;;;25.39;54.59;98833.63;7314359;19;130216;-34
2023/07/30 05:27:16;;;;;;;44.03;2.37;;;;;;;25.40;54.67;98832.66;7316616;19;129282;-35
2023/07/30 05:29:41;;;;;;;25.03;1.50;;;;;;;25.41;54.35;98834.28;7317657;19;128809;-32
2023/07/30 05:32:07;;;;;;;30.70;1.77;;;;;;;25.42;54.88;98846.47;7313490;19;128694;-33
2023/07/30 05:34:32;;;;;;;34.07;1.83;;;;;;;25.42;54.60;98849.88;7313385;19;131520;-32
2023/07/30 05:36:58;;;;;;;50.53;2.93;;;;;;;25.42;54.56;98847.25;7316053;19;129598;-35
2023/07/30 05:39:23;;;;;;;23.13;1.20;;;;;;;25.42;55.23;98849.88;7316672;19;129006;-36
2023/07/30 05:41:48;;;;;;;16.33;1.07;;;;;;;25.42;54.88;98857.78;7315032;19;128767;-36
2023/07/30 05:44:14;;;;;;;56.67;2.97;;;;;;;25.42;54.99;98854.34;7312809;19;130811;-31
2023/07/30 05:46:39;;;;;;;30.33;1.77;;;;;;;24.96;52.16;98860.69;7316035;19;130001;-34
2023/07/30 05:49:04;;;;;;;21.53;1.30;;;;;;;24.86;51.07;98868.06;7315724;19;129356;-38
2023/07/30 05:51:30;;;;;;;31.03;1.70;;;;;;;24.82;51.31;98864.13;7314870;19;128888;-32
2023/07/30 05:53:55;;;;;;;52.63;2.73;;;;;;;24.82;53.47;98854.44;7314194;19;129350;-35
2023/07/30 05:56:20;;;;;;;29.17;1.73;;;;;;;25.15;54.31;98861.03;7314721;19;129542;-33
2023/07/30 05:58:46;;;;;;;26.73;1.47;;;;;;;25.28;53.96;98860.38;7315213;19;128849;-31
2023/07/30 06:01:11;;;;;;;19.37;1.10;;;;;;;25.33;54.49;98879.09;7314467;19;129240;-36
2023/07/30 06:03:37;;;;;;;43.57;2.37;;;;;;;25.37;54.44;98869.88;7314718;19;129781;-32
2023/07/30 06:06:03;;;;;;;25.40;1.43;;;;;;;25.36;54.26;98862.97;7313692;19;129375;-38
2023/07/30 06:08:29;;;;;;;22.47;1.27;;;;;;;25.39;54.74;98873.94;7313534;19;129051;-32
2023/07/30 06:10:55;;;;;;;49.22;2.90;;;;;;;25.32;54.51;98859.03;7313669;19;130402;-35
2023/07/30 06:13:20;;;;;;;38.57;2.10;;;;;;;25.38;54.75;98867.06;7314234;19;129535;-37
2023/07/30 06:15:45;;;;;;;24.33;1.33;;;;;;;25.40;54.87;98870.31;7314263;19;129220;-37
2023/07/30 06:18:11;;;;;;;23.63;1.37;;;;;;;25.40;55.16;98866.88;7314534;19;128998;-34
2023/07/30 06:20:36;;;;;;;35.57;1.90;;;;;;;25.39;54.94;98871.31;7315064;19;129287;-37
2023/07/30 06:23:01;;;;;;;37.20;1.93;;;;;;;25.38;55.01;98869.69;7312155;19;129610;-41
2023/07/30 06:25:27;;;;;;;11.70;0.80;;;;;;;25.39;55.27;98873.13;7313223;19;131089;-37
2023/07/30 06:27:52;;;;;;;28.30;1.63;;;;;;;24.93;52.05;98869.78;7313605;19;129160;-33
2023/07/30 06:30:17;;;;;;;35.63;1.93;;;;;;;24.81;50.66;98878.28;7315137;19;129364;-35
2023/07/30 06:32:43;;;;;;;25.60;1.43;;;;;;;24.81;50.86;98878.28;7314626;19;129034;-32
2023/07/30 06:35:08;;;;;;;36.93;1.97;;;;;;;25.05;53.86;98880.69;7311810;19;129366;-48
2023/07/30 06:37:34;;;;;;;24.43;1.33;;;;;;;25.19;54.04;98882.50;7313178;19;129843;-41
2023/07/30 06:39:59;;;;;;;57.50;3.17;;;;;;;25.18;54.13;98868.56;7314594;19;128871;-35
2023/07/30 06:42:25;;;;;;;36.80;2.13;;;;;;;25.33;54.60;98885.16;7315029;19;130076;-34
2023/07/30 06:44:50;;;;;;;30.97;1.73;;;;;;;25.36;54.38;98878.75;7311635;19;130489;-39
2023/07/30 06:47:15;;;;;;;23.63;1.37;;;;;;;25.27;54.98;98867.44;7313655;19;128830;-31
2023/07/30 06:49:40;;;;;;;43.57;2.37;;;;;;;25.38;54.71;98889.91;7313767;19;129458;-32
2023/07/30 06:52:06;;;;;;;31.07;1.73;;;;;;;25.38;54.65;98890.75;7314303;19;131225;-37
2023/07/30 06:54:31;;;;;;;30.97;1.80;;;;;;;25.38;54.92;98889.91;7311304;19;129115;-29
2023/07/30 06:56:57;;;;;;;39.60;2.27;;;;;;;25.39;55.13;98894.16;7313840;19;129034;-31
2023/07/30 06:59:22;;;;;;;39.00;2.10;;;;;;;25.35;54.70;98885.03;7314480;19;129009;-43
2023/07/30 07:01:47;;;;;;;7.57;0.60;;;;;;;25.39;54.64;98902.06;7313912;19;129006;-32
2023/07/30 07:04:13;;;;;;;24.87;1.40;;;;;;;25.39;55.39;98896.81;7309751;19;129291;-33
2023/07/30 07:06:39;;;;;;;37.40;2.03;;;;;;;24.98;51.36;98895.53;7313715;19;129085;-37
2023/07/30 07:09:04;;;;;;;30.67;1.73;;;;;;;24.81;50.97;98900.13;7312991;19;129654;-32
2023/07/30 07:11:29;;;;;;;23.40;1.40;;;;;;;24.67;50.97;98887.72;7314340;19;130138;-34
2023/07/30 07:13:55;;;;;;;26.67;1.43;;;;;;;24.89;54.11;98907.13;7311889;19;130672;-38
2023/07/30 07:16:21;;;;;;;43.47;2.40;;;;;;;25.14;54.55;98904.09;7311263;19;129184;-35
2023/07/30 07:18:48;;;;;;;31.40;1.73;;;;;;;25.26;54.48;98915.00;7311815;19;129042;-35
2023/07/30 07:21:14;;;;;;;35.15;1.92;;;;;;;25.31;54.59;98917.91;7313376;19;129978;-32
2023/07/30 07:23:39;;;;;;;29.00;1.60;;;;;;;25.34;54.34;98917.53;7311511;19;129230;-37
2023/07/30 07:26:04;;;;;;;36.63;2.00;;;;;;;25.36;54.94;98912.97;7311050;19;129418;-35
2023/07/30 07:28:30;;;;;;;30.10;1.60;;;;;;;25.38;54.86;98908.34;7313189;19;128852;-33
2023/07/30 07:30:55;;;;;;;26.20;1.57;;;;;;;25.39;54.93;98920.47;7311543;19;129322;-33
2023/07/30 07:33:21;;;;;;;23.57;1.37;;;;;;;25.38;54.94;98918.88;7311160;19;130352;-32
2023/07/30 07:35:47;;;;;;;64.53;3.33;;;;;;;25.37;55.26;98923.31;7311804;19;128872;-35
2023/07/30 07:38:12;;;;;;;30.87;1.73;;;;;;;25.38;55.20;98918.88;7312506;19;130713;-34
2023/07/30 07:40:41;;;;;;;42.70;2.27;;;;;;;25.38;55.13;98926.75;7312607;19;129160;-35
2023/07/30 07:43:09;;;;;;;26.52;1.48;;;;;;;25.36;54.98;98926.13;7311996;19;129182;-35
2023/07/30 07:45:34;;;;;;;42.30;2.30;;;;;;;25.35;54.82;98935.03;7311120;19;131702;-34
2023/07/30 07:48:00;;;;;;;23.10;1.33;;;;;;;24.90;51.90;98935.88;7313190;19;128743;-39
2023/07/30 07:50:25;;;;;;;28.43;1.50;;;;;;;24.87;51.17;98922.28;7313273;19;130065;-36
2023/07/30 07:52:51;;;;;;;29.13;1.70;;;;;;;24.79;51.07;98925.75;7312168;19;130479;-36
2023/07/30 07:55:16;;;;;;;37.23;2.00;;;;;;;25.01;54.07;98924.09;7310614;19;129056;-35
2023/07/30 07:57:42;;;;;;;33.83;2.03;;;;;;;25.19;54.04;98919.34;7312237;19;129063;-31
2023/07/30 08:00:08;;;;;;;21.27;1.20;;;;;;;25.27;54.14;98927.19;7311868;19;129138;-32
2023/07/30 08:02:34;;;;;;;31.75;1.75;;;;;;;25.31;54.70;98918.75;7312681;19;130357;-31
2023/07/30 08:04:59;;;;;;;47.00;2.50;;;;;;;25.31;54.58;98913.47;7310474;19;128764;-36
2023/07/30 08:07:24;;;;;;;36.60;2.10;;;;;;;25.35;54.75;98913.97;7311889;19;128950;-37
2023/07/30 08:09:51;;;;;;;26.87;1.47;;;;;;;25.36;54.62;98910.31;7311707;19;129752;-34
2023/07/30 08:12:16;;;;;;;39.95;2.25;;;;;;;25.35;54.80;98900.81;7309033;19;130208;-38
2023/07/30 08:14:42;;;;;;;39.63;2.07;;;;;;;25.36;54.67;98905.88;7309874;19;128873;-36
2023/07/30 08:17:07;;;;;;;69.37;4.27;;;;;;;25.37;55.01;98904.09;7309976;19;130216;-34
2023/07/30 08:19:32;;;;;;;30.77;1.60;;;;;;;25.37;55.08;98901.44;7311319;19;128941;-37
2023/07/30 08:21:58;;;;;;;35.60;1.97;;;;;;;25.37;55.46;98902.25;7310873;19;129397;-33
2023/07/30 08:24:24;;;;;;;32.80;1.83;;;;;;;25.38;55.05;98903.06;7309557;19;129062;-35
2023/07/30 08:26:49;;;;;;;21.87;1.23;;;;;;;25.07;51.20;98902.38;7311735;19;128916;-37
2023/07/30 08:29:15;;;;;;;25.23;1.37;;;;;;;24.79;51.37;98896.84;7310627;19;129024;-33
2023/07/30 08:31:41;;;;;;;39.00;2.10;;;;;;;24.78;50.94;98904.91;7310113;19;130482;-30
2023/07/30 08:34:06;;;;;;;28.67;1.58;;;;;;;24.84;53.22;98901.59;7309948;19;128784;-32
2023/07/30 08:36:32;;;;;;;42.53;2.27;;;;;;;25.09;54.44;98903.00;7311240;19;129249;-33
2023/07/30 08:38:57;;;;;;;36.23;2.10;;;;;;;25.23;54.49;98915.38;7309341;19;129534;-39
2023/07/30 08:41:23;;;;;;;44.50;2.27;;;;;;;25.18;54.68;98891.41;7311283;19;130320;-33
2023/07/30 08:43:49;;;;;;;28.23;1.50;;;;;;;25.31;54.28;98907.38;7309545;19;128748;-32
2023/07/30 08:46:15;;;;;;;31.70;1.67;;;;;;;25.34;54.97;98904.38;7310382;19;129758;-33
2023/07/30 08:48:41;;;;;;;;;;;;;;;25.45;55.49;98898.72;7318051;19;130191;-35
2023/07/30 08:51:06;;;;;;;44.30;2.38;;;;;;;25.38;54.45;98900.44;7317189;19;130092;-36
2023/07/30 08:53:32;;;;;;;31.83;1.67;;;;;;;25.36;55.34;98902.44;7317083;19;128974;-38
2023/07/30 08:55:58;;;;;;;6.17;0.60;;;;;;;25.34;55.31;98889.44;7317904;19;129035;-33
2023/07/30 08:58:27;;;;;;;30.20;1.73;;;;;;;25.37;55.53;98896.19;7315967;19;130122;-35
2023/07/30 09:00:55;;;;;;;30.27;1.77;;;;;;;25.35;55.30;98896.34;7317531;19;130319;-37
2023/07/30 09:03:22;;;;;;;27.30;1.50;;;;;;;25.33;55.15;98887.81;7317611;19;128941;-33
2023/07/30 09:05:48;;;;;;;27.80;1.58;;;;;;;25.35;55.22;98892.91;7315089;19;129345;-38
2023/07/30 09:08:14;;;;;;;18.07;1.03;;;;;;;24.87;51.92;98890.72;7316802;19;131104;-39
2023/07/30 09:10:40;;;;;;;21.57;1.30;;;;;;;24.79;51.39;98891.59;7317752;19;129286;-35
2023/07/30 09:13:06;;;;;;;19.43;1.03;;;;;;;24.79;51.18;98893.41;7316254;19;128855;-34
2023/07/30 09:15:33;;;;;;;26.73;1.50;;;;;;;25.01;54.69;98889.91;7317102;19;130296;-35
2023/07/30 09:17:59;;;;;;;26.35;1.50;;;;;;;25.18;54.29;98891.41;7316520;19;130193;-38
2023/07/30 09:20:26;;;;;;;44.75;2.45;;;;;;;25.25;54.24;98893.16;7317463;19;130398;-36
2023/07/30 09:22:51;;;;;;;27.73;1.52;;;;;;;25.29;54.51;98896.22;7318012;19;130697;-34
2023/07/30 09:25:20;;;;;;;24.27;1.37;;;;;;;25.32;54.91;98877.47;7312212;19;129360;-37
2023/07/30 09:27:49;;;;;;;25.25;1.45;;;;;;;25.31;55.45;98881.06;7315966;19;129337;-30
2023/07/30 09:30:21;;;;;;;45.92;2.45;;;;;;;25.20;54.93;98869.19;7316374;19;129178;-40
2023/07/30 09:32:52;;;;;;;24.75;1.58;;;;;;;25.34;55.01;98893.88;7316944;19;128949;-34
2023/07/30 09:35:17;;;;;;;26.92;1.55;;;;;;;25.34;55.12;98897.31;7314995;19;128930;-37
2023/07/30 09:37:43;;;;;;;21.23;1.20;;;;;;;25.34;55.02;98897.31;7315606;19;130108;-37
2023/07/30 09:40:14;;;;;;;32.93;1.87;;;;;;;25.35;55.28;98901.59;7316569;19;130177;-31
2023/07/30 09:42:44;;;;;;;19.17;1.10;;;;;;;25.34;55.39;98899.94;7316233;19;128705;-40
2023/07/30 09:45:20;;;;;;;19.23;1.20;;;;;;;25.36;55.90;98891.91;7314097;19;128828;-36
2023/07/30 09:47:47;;;;;;;30.52;1.73;;;;;;;24.99;52.39;98894.56;7315397;19;130425;-35
2023/07/30 09:50:13;;;;;;;;;;;;;;;24.85;51.39;98890.06;7316686;19;130394;-36
2023/07/30 09:52:38;;;;;;;79.97;4.47;;;;;;;24.74;50.96;98895.75;7313017;19;129090;-29
2023/07/30 09:55:07;;;;;;;31.77;1.63;;;;;;;24.81;54.96;98894.06;7314946;19;129058;-36
2023/07/30 09:57:32;;;;;;;43.20;2.30;;;;;;;25.09;54.91;98897.75;7312909;19;130021;-36
2023/07/30 09:59:58;;;;;;;27.27;1.60;;;;;;;25.21;54.22;98897.13;7314121;19;129079;-33
2023/07/30 10:02:25;;;;;;;50.90;2.63;;;;;;;25.26;54.64;98899.22;7315729;19;129126;-34
2023/07/30 10:04:53;;;;;;;27.05;1.48;;;;;;;25.29;54.91;98902.31;7314273;19;128896;-36
2023/07/30 10:07:21;;;;;;;33.03;2.08;;;;;;;25.31;54.95;98904.75;7315305;19;130940;-30
2023/07/30 10:09:50;;;;;;;27.58;1.50;;;;;;;25.21;54.91;98891.88;7314783;19;130525;-35
2023/07/30 10:12:18;;;;;;;46.22;2.53;;;;;;;25.32;54.51;98894.03;7316118;19;129405;-33
2023/07/30 10:14:43;;;;;;;37.28;2.13;;;;;;;25.32;54.77;98903.78;7314199;19;129541;-33
2023/07/30 10:17:12;;;;;;;67.87;4.03;;;;;;;25.27;55.25;98890.34;7314187;19;131313;-32
2023/07/30 10:19:37;;;;;;;25.63;1.45;;;;;;;25.33;55.11;98903.59;7315097;19;131150;-33
2023/07/30 10:22:12;;;;;;;44.47;2.40;;;;;;;25.36;55.67;98899.81;7315642;19;129265;-36
2023/07/30 10:24:40;;;;;;;42.28;2.25;;;;;;;25.33;55.48;98902.75;7312704;19;131909;-35
2023/07/30 10:27:12;;;;;;;37.03;2.45;;;;;;;25.26;53.05;98904.47;7312250;19;129082;-34
2023/07/30 10:29:41;;;;;;;27.92;1.55;;;;;;;24.83;51.78;98897.31;7314766;19;129256;-33
2023/07/30 10:32:07;;;;;;;37.30;2.10;;;;;;;24.77;50.93;98903.28;7313204;19;128808;-37
2023/07/30 10:34:47;;;;;;;48.03;2.55;;;;;;;24.77;51.55;98903.28;7311728;19;128947;-34
2023/07/30 10:37:20;;;;;;;89.03;5.20;;;;;;;25.06;54.72;98903.34;7309309;19;129125;-39
2023/07/30 10:39:49;;;;;;;85.85;4.95;;;;;;;25.18;55.21;98891.41;7307407;19;129258;-37
2023/07/30 10:42:15;;;;;;;71.07;3.97;;;;;;;25.24;54.31;98885.41;7310327;19;129506;-36
2023/07/30 10:44:44;;;;;;;36.60;2.07;;;;;;;25.29;54.67;98888.31;7312679;19;129043;-34
2023/07/30 10:47:10;;;;;;;61.50;3.72;;;;;;;25.30;54.91;98889.97;7313296;19;131213;-36
2023/07/30 10:49:37;;;;;;;26.45;1.55;;;;;;;25.31;54.52;98888.97;7315194;19;130555;-32
2023/07/30 10:52:03;;;;;;;37.63;2.28;;;;;;;25.32;55.24;98895.88;7314681;19;129103;-33
2023/07/30 10:54:33;;;;;;;27.87;1.70;;;;;;;25.34;55.24;98885.97;7313854;19;130796;-34
2023/07/30 10:56:59;;;;;;;66.18;3.60;;;;;;;25.32;55.41;98883.53;7311047;19;131561;-37
2023/07/30 10:59:24;;;;;;;33.47;1.80;;;;;;;25.32;54.66;98882.72;7312486;19;129497;-33
2023/07/30 11:01:52;;;;;;;29.07;1.73;;;;;;;25.27;55.00;98869.28;7314888;19;129371;-33
2023/07/30 11:04:20;;;;;;;28.35;1.65;;;;;;;25.31;55.06;98881.06;7311687;19;128831;-36
2023/07/30 11:06:50;;;;;;;45.55;2.45;;;;;;;25.32;55.49;98883.53;7310983;19;131020;-37
2023/07/30 11:09:33;;;;;;;39.38;2.10;;;;;;;24.91;51.66;98889.34;7313388;19;131207;-36
2023/07/30 11:11:58;;;;;;;40.60;2.30;;;;;;;24.78;50.86;98883.88;7313671;19;129117;-34
2023/07/30 11:14:25;;;;;;;28.43;1.67;;;;;;;24.69;50.52;98866.56;7312061;19;128990;-34